createdAt,value
2019-05-22T00:02:22.034Z,92.80
2019-05-22T00:05:01.451Z,92.60
2019-05-22T00:07:30.982Z,92.90
2019-05-22T00:10:02.399Z,92.90
2019-05-22T00:12:46.060Z,93.00
2019-05-22T00:15:07.983Z,92.90
2019-05-22T00:17:38.076Z,93.10
2019-05-22T00:20:09.218Z,93.10
2019-05-22T00:22:41.439Z,93.20
2019-05-22T00:25:15.365Z,93.20
2019-05-22T00:27:46.997Z,93.40
2019-05-22T00:30:18.004Z,93.50
2019-05-22T00:32:48.107Z,93.50
2019-05-22T00:35:19.103Z,93.60
2019-05-22T00:37:49.454Z,93.80
2019-05-22T00:40:20.559Z,93.40
2019-05-22T00:43:03.505Z,93.40
2019-05-22T00:45:25.013Z,93.30
2019-05-22T00:47:55.031Z,93.60
2019-05-22T00:50:29.695Z,93.50
2019-05-22T00:53:02.014Z,93.40
2019-05-22T00:55:44.450Z,93.30
2019-05-22T00:58:26.954Z,93.30
2019-05-22T01:01:02.511Z,93.40
2019-05-22T01:03:36.109Z,93.30
2019-05-22T01:06:08.063Z,93.60
2019-05-22T01:08:40.315Z,93.30
2019-05-22T01:11:11.612Z,93.10
2019-05-22T01:13:42.832Z,93.10
2019-05-22T01:16:15.201Z,93.20
2019-05-22T01:18:45.278Z,93.10
2019-05-22T01:21:21.565Z,93.00
2019-05-22T01:23:52.804Z,93.00
2019-05-22T01:26:22.963Z,92.90
2019-05-22T01:28:53.265Z,92.80
2019-05-22T01:31:27.323Z,92.80
2019-05-22T01:34:05.580Z,92.90
2019-05-22T01:36:56.659Z,92.90
2019-05-22T01:39:37.027Z,92.80
2019-05-22T01:42:11.127Z,92.90
2019-05-22T01:44:41.595Z,93.10
2019-05-22T01:47:18.089Z,93.00
2019-05-22T01:49:52.320Z,93.00
2019-05-22T01:52:23.365Z,92.90
2019-05-22T01:54:55.019Z,93.30
2019-05-22T01:57:26.471Z,93.40
2019-05-22T01:59:57.195Z,93.30
2019-05-22T02:02:26.896Z,92.80
2019-05-22T02:04:59.493Z,92.90
2019-05-22T02:07:30.631Z,93.20
2019-05-22T02:10:02.090Z,93.00
2019-05-22T02:12:41.217Z,93.20
2019-05-22T02:15:12.795Z,93.10
2019-05-22T02:17:42.701Z,93.70
2019-05-22T02:20:14.131Z,93.00
2019-05-22T02:22:44.703Z,93.10
2019-05-22T02:25:15.655Z,93.20
2019-05-22T02:27:46.228Z,93.00
2019-05-22T02:30:18.636Z,93.10
2019-05-22T02:32:49.065Z,93.20
2019-05-22T02:35:19.208Z,93.40
2019-05-22T02:37:49.120Z,93.30
2019-05-22T02:40:24.403Z,93.20
2019-05-22T02:42:55.047Z,93.40
2019-05-22T02:45:25.500Z,93.60
2019-05-22T02:47:55.934Z,93.20
2019-05-22T02:50:25.790Z,93.20
2019-05-22T02:52:55.422Z,93.50
2019-05-22T02:55:26.200Z,93.30
2019-05-22T02:57:56.413Z,92.90
2019-05-22T03:00:30.095Z,92.90
2019-05-22T03:02:59.630Z,92.70
2019-05-22T03:05:29.289Z,93.00
2019-05-22T03:08:00.257Z,93.30
2019-05-22T03:10:31.054Z,93.20
2019-05-22T03:13:01.653Z,92.90
2019-05-22T03:15:31.804Z,92.90
2019-05-22T03:18:04.843Z,92.90
2019-05-22T03:20:34.320Z,92.90
2019-05-22T03:23:41.045Z,93.00
2019-05-22T03:26:11.314Z,93.10
2019-05-22T03:28:42.033Z,93.10
2019-05-22T03:31:12.938Z,93.00
2019-05-22T03:33:43.234Z,93.10
2019-05-22T03:36:17.270Z,93.20
2019-05-22T03:38:47.615Z,93.40
2019-05-22T03:41:19.201Z,93.50
2019-05-22T03:43:50.752Z,93.60
2019-05-22T03:46:37.216Z,93.70
2019-05-22T03:49:26.064Z,93.70
2019-05-22T03:51:40.336Z,93.70
2019-05-22T03:54:11.616Z,93.70
2019-05-22T03:56:42.457Z,93.80
2019-05-22T03:59:12.810Z,93.90
2019-05-22T04:01:43.905Z,93.70
2019-05-22T04:04:25.612Z,93.70
2019-05-22T04:06:56.292Z,93.60
2019-05-22T04:09:26.764Z,93.30
2019-05-22T04:11:56.206Z,93.40
2019-05-22T04:14:34.382Z,93.50
2019-05-22T04:17:06.318Z,93.60
2019-05-22T04:19:48.335Z,93.70
2019-05-22T04:22:09.190Z,93.90
2019-05-22T04:24:39.247Z,93.80
2019-05-22T04:27:10.378Z,93.80
2019-05-22T04:29:40.034Z,93.90
2019-05-22T04:32:17.364Z,94.00
2019-05-22T04:34:47.525Z,93.90
2019-05-22T04:37:17.392Z,93.80
2019-05-22T04:39:48.822Z,94.00
2019-05-22T04:42:18.973Z,94.20
2019-05-22T04:45:10.013Z,93.90
2019-05-22T04:47:40.075Z,93.90
2019-05-22T04:50:10.483Z,94.00
2019-05-22T04:52:41.750Z,93.90
2019-05-22T04:55:13.375Z,93.90
2019-05-22T04:57:43.287Z,93.90
2019-05-22T05:00:16.773Z,94.10
2019-05-22T05:02:46.501Z,94.00
2019-05-22T05:05:17.219Z,93.80
2019-05-22T05:07:48.228Z,93.80
2019-05-22T05:10:18.359Z,93.80
2019-05-22T05:12:48.305Z,93.70
2019-05-22T05:15:17.850Z,93.70
2019-05-22T05:17:47.631Z,93.80
2019-05-22T05:20:22.406Z,93.90
2019-05-22T05:22:49.794Z,94.20
2019-05-22T05:25:20.579Z,94.20
2019-05-22T05:27:50.549Z,94.00
2019-05-22T05:30:22.263Z,93.80
2019-05-22T05:32:52.173Z,93.70
2019-05-22T05:35:22.184Z,93.70
2019-05-22T05:37:52.236Z,93.80
2019-05-22T05:40:41.379Z,93.90
2019-05-22T05:43:12.632Z,94.10
2019-05-22T05:45:44.074Z,94.00
2019-05-22T05:48:16.884Z,93.80
2019-05-22T05:51:37.327Z,93.70
2019-05-22T05:54:14.058Z,93.70
2019-05-22T05:56:45.492Z,93.20
2019-05-22T05:59:15.750Z,93.00
2019-05-22T06:01:48.771Z,93.10
2019-05-22T06:04:34.577Z,93.60
2019-05-22T06:07:19.144Z,93.30
2019-05-22T06:09:58.036Z,93.50
2019-05-22T06:12:28.050Z,93.70
2019-05-22T06:14:57.676Z,93.50
2019-05-22T06:18:11.816Z,93.00
2019-05-22T06:20:41.631Z,93.10
2019-05-22T06:23:49.980Z,92.90
2019-05-22T06:27:19.162Z,93.10
2019-05-22T06:30:08.133Z,93.00
2019-05-22T06:33:15.312Z,92.40
2019-05-22T06:35:46.652Z,92.20
2019-05-22T06:38:49.851Z,92.20
2019-05-22T06:41:22.375Z,91.50
2019-05-22T06:44:37.644Z,91.20
2019-05-22T06:47:10.454Z,91.10
2019-05-22T06:49:51.669Z,91.10
2019-05-22T06:52:21.479Z,90.60
2019-05-22T06:54:52.066Z,90.60
2019-05-22T06:57:32.080Z,90.90
2019-05-22T07:00:29.939Z,90.40
2019-05-22T07:02:59.694Z,90.50
2019-05-22T07:05:29.926Z,90.80
2019-05-22T07:08:00.875Z,91.10
2019-05-22T07:10:31.750Z,90.40
2019-05-22T07:13:02.086Z,90.00
2019-05-22T07:15:36.682Z,90.40
2019-05-22T07:18:07.203Z,90.30
2019-05-22T07:20:39.074Z,90.50
2019-05-22T07:23:11.791Z,90.60
2019-05-22T07:25:42.626Z,90.60
2019-05-22T07:28:13.280Z,91.00
2019-05-22T07:30:42.853Z,90.90
2019-05-22T07:33:13.189Z,90.90
2019-05-22T07:36:04.500Z,90.70
2019-05-22T07:38:17.486Z,90.90
2019-05-22T07:40:50.534Z,91.10
2019-05-22T07:43:19.843Z,91.00
2019-05-22T07:45:49.427Z,91.20
2019-05-22T07:48:19.593Z,90.80
2019-05-22T07:50:50.149Z,90.90
2019-05-22T07:53:19.617Z,91.20
2019-05-22T07:55:52.434Z,90.90
2019-05-22T07:58:22.727Z,91.20
2019-05-22T08:00:55.960Z,90.80
2019-05-22T08:03:27.610Z,91.10
2019-05-22T08:06:07.597Z,91.40
2019-05-22T08:08:39.868Z,91.60
2019-05-22T08:11:10.977Z,91.50
2019-05-22T08:13:42.636Z,92.10
2019-05-22T08:16:12.098Z,91.80
2019-05-22T08:18:42.535Z,91.60
2019-05-22T08:21:12.398Z,90.50
2019-05-22T08:23:42.232Z,90.60
2019-05-22T08:26:12.963Z,90.70
2019-05-22T08:28:42.651Z,91.00
2019-05-22T08:31:13.181Z,90.10
2019-05-22T08:33:43.319Z,90.30
2019-05-22T08:36:13.425Z,90.60
2019-05-22T08:38:44.568Z,90.30
2019-05-22T08:41:16.024Z,90.20
2019-05-22T08:44:14.641Z,91.00
2019-05-22T08:46:18.081Z,90.50
2019-05-22T08:48:49.290Z,90.50
2019-05-22T08:51:19.408Z,90.10
2019-05-22T08:53:49.066Z,89.50
2019-05-22T08:56:19.651Z,90.20
2019-05-22T08:58:49.963Z,89.90
2019-05-22T09:01:19.523Z,90.20
2019-05-22T09:03:49.082Z,90.10
2019-05-22T09:06:18.791Z,90.00
2019-05-22T09:08:48.436Z,89.90
2019-05-22T09:11:17.956Z,88.90
2019-05-22T09:13:47.717Z,89.10
2019-05-22T09:16:18.079Z,88.70
2019-05-22T09:18:47.685Z,89.30
2019-05-22T09:21:18.130Z,89.20
2019-05-22T09:23:48.019Z,87.40
2019-05-22T09:26:18.355Z,89.00
2019-05-22T09:28:48.230Z,89.10
2019-05-22T09:31:19.034Z,88.00
2019-05-22T09:33:48.867Z,87.10
2019-05-22T09:36:18.396Z,87.30
2019-05-22T09:38:51.937Z,87.40
2019-05-22T09:41:20.041Z,86.70
2019-05-22T09:43:49.588Z,85.60
2019-05-22T09:46:19.328Z,85.10
2019-05-22T09:48:48.981Z,84.90
2019-05-22T09:51:18.590Z,83.50
2019-05-22T09:53:49.423Z,84.20
2019-05-22T09:56:18.987Z,84.40
2019-05-22T09:58:48.484Z,84.00
2019-05-22T10:01:18.054Z,84.80
2019-05-22T10:03:47.804Z,84.00
2019-05-22T10:06:19.716Z,85.70
2019-05-22T10:08:49.044Z,84.40
2019-05-22T10:11:18.923Z,83.50
2019-05-22T10:13:48.859Z,84.60
2019-05-22T10:16:18.696Z,83.60
2019-05-22T10:18:52.286Z,82.20
2019-05-22T10:21:19.936Z,81.40
2019-05-22T10:23:49.679Z,78.20
2019-05-22T10:26:19.149Z,80.00
2019-05-22T10:28:49.055Z,78.20
2019-05-22T10:31:21.685Z,80.50
2019-05-22T10:33:52.079Z,79.80
2019-05-22T10:36:21.606Z,80.10
2019-05-22T10:38:51.267Z,80.40
2019-05-22T10:41:21.174Z,79.10
2019-05-22T10:44:22.802Z,75.80
2019-05-22T10:47:20.087Z,73.90
2019-05-22T10:50:12.973Z,75.20
2019-05-22T10:52:54.885Z,77.70
2019-05-22T10:55:25.250Z,74.90
2019-05-22T10:58:36.967Z,74.60
2019-05-22T11:01:12.528Z,74.50
2019-05-22T11:03:48.040Z,74.50
2019-05-22T11:06:18.575Z,73.30
2019-05-22T11:08:48.673Z,73.60
2019-05-22T11:11:19.142Z,73.10
2019-05-22T11:14:00.708Z,74.30
2019-05-22T11:16:22.351Z,75.80
2019-05-22T11:18:52.747Z,76.30
2019-05-22T11:21:22.972Z,76.40
2019-05-22T11:23:53.427Z,74.20
2019-05-22T11:26:23.054Z,75.90
2019-05-22T11:28:53.055Z,73.10
2019-05-22T11:31:23.502Z,73.80
2019-05-22T11:33:53.049Z,72.90
2019-05-22T11:36:26.204Z,73.40
2019-05-22T11:38:55.940Z,69.80
2019-05-22T11:41:25.714Z,70.30
2019-05-22T11:43:55.178Z,70.80
2019-05-22T11:46:24.886Z,73.00
2019-05-22T11:48:54.822Z,76.40
2019-05-22T11:51:25.248Z,72.10
2019-05-22T11:54:07.997Z,75.00
2019-05-22T11:56:26.757Z,73.60
2019-05-22T11:58:56.738Z,72.60
2019-05-22T12:01:26.156Z,70.20
2019-05-22T12:03:55.638Z,73.70
2019-05-22T12:06:26.193Z,69.10
2019-05-22T12:08:57.587Z,69.50
2019-05-22T12:11:28.631Z,67.90
2019-05-22T12:13:59.283Z,70.30
2019-05-22T12:16:31.795Z,72.60
2019-05-22T12:19:04.935Z,71.90
2019-05-22T12:21:36.788Z,72.60
2019-05-22T12:24:08.664Z,73.10
2019-05-22T12:26:40.109Z,69.60
2019-05-22T12:29:16.363Z,71.90
2019-05-22T12:31:45.942Z,68.10
2019-05-22T12:34:19.788Z,70.80
2019-05-22T12:36:52.382Z,69.80
2019-05-22T12:39:23.867Z,66.10
2019-05-22T12:41:53.630Z,69.20
2019-05-22T12:44:23.697Z,69.10
2019-05-22T12:46:55.008Z,70.50
2019-05-22T12:53:14.926Z,66.10
2019-05-22T12:58:40.171Z,67.50
2019-05-22T13:01:09.733Z,65.90
2019-05-22T13:03:40.206Z,64.40
2019-05-22T13:06:11.408Z,69.90
2019-05-22T13:08:42.644Z,68.00
2019-05-22T13:11:13.486Z,66.60
2019-05-22T13:13:43.456Z,65.50
2019-05-22T13:16:14.514Z,64.20
2019-05-22T13:18:45.157Z,62.60
2019-05-22T13:21:18.416Z,66.10
2019-05-22T13:23:51.066Z,62.80
2019-05-22T13:26:21.506Z,61.30
2019-05-22T13:28:51.272Z,62.10
2019-05-22T13:31:21.205Z,60.20
2019-05-22T13:33:53.020Z,61.70
2019-05-22T13:36:23.831Z,59.80
2019-05-22T13:38:53.618Z,60.10
2019-05-22T13:41:23.449Z,62.90
2019-05-22T13:43:54.208Z,60.10
2019-05-22T13:46:23.987Z,59.80
2019-05-22T13:48:53.735Z,60.20
2019-05-22T13:51:23.743Z,58.80
2019-05-22T13:53:53.806Z,58.00
2019-05-22T13:56:25.508Z,55.90
2019-05-22T13:58:56.225Z,56.20
2019-05-22T14:01:26.399Z,58.30
2019-05-22T14:03:57.044Z,58.50
2019-05-22T14:06:27.675Z,57.00
2019-05-22T14:08:57.579Z,59.20
2019-05-22T14:11:27.873Z,56.90
2019-05-22T14:13:58.109Z,58.90
2019-05-22T14:16:27.824Z,59.20
2019-05-22T14:18:57.617Z,58.20
2019-05-22T14:21:27.593Z,55.30
2019-05-22T14:23:57.121Z,56.60
2019-05-22T14:26:29.845Z,54.20
2019-05-22T14:28:58.559Z,53.30
2019-05-22T14:31:28.143Z,54.90
2019-05-22T14:33:57.784Z,53.50
2019-05-22T14:36:27.676Z,55.80
2019-05-22T14:38:57.597Z,54.00
2019-05-22T14:41:27.121Z,55.30
2019-05-22T14:43:56.693Z,55.50
2019-05-22T14:46:26.353Z,52.90
2019-05-22T14:48:55.882Z,56.50
2019-05-22T14:51:25.964Z,56.60
2019-05-22T14:53:57.108Z,57.20
2019-05-22T14:56:27.175Z,56.40
2019-05-22T14:58:56.931Z,55.50
2019-05-22T15:01:27.144Z,53.10
2019-05-22T15:03:57.089Z,52.10
2019-05-22T15:06:27.112Z,54.40
2019-05-22T15:08:56.714Z,52.10
2019-05-22T15:11:27.582Z,53.70
2019-05-22T15:13:57.476Z,54.70
2019-05-22T15:16:27.144Z,54.50
2019-05-22T15:18:56.817Z,52.20
2019-05-22T15:21:28.575Z,54.40
2019-05-22T15:23:58.619Z,55.00
2019-05-22T15:26:28.955Z,52.50
2019-05-22T15:29:07.660Z,52.90
2019-05-22T15:31:37.512Z,52.60
2019-05-22T15:34:07.838Z,53.80
2019-05-22T15:36:39.159Z,54.10
2019-05-22T15:39:11.503Z,54.70
2019-05-22T15:41:41.343Z,53.70
2019-05-22T15:44:11.866Z,52.90
2019-05-22T15:46:42.947Z,54.10
2019-05-22T15:49:13.512Z,51.90
2019-05-22T15:51:45.778Z,51.70
2019-05-22T15:54:17.908Z,50.10
2019-05-22T15:56:48.314Z,50.60
2019-05-22T15:59:20.176Z,51.30
2019-05-22T16:01:51.106Z,51.50
2019-05-22T16:04:22.463Z,52.60
2019-05-22T16:06:52.251Z,51.20
2019-05-22T16:09:25.094Z,50.50
2019-05-22T16:11:55.646Z,50.50
2019-05-22T16:14:28.341Z,50.40
2019-05-22T16:16:58.298Z,51.40
2019-05-22T16:19:29.258Z,50.30
2019-05-22T16:22:02.172Z,50.60
2019-05-22T16:24:32.415Z,50.70
2019-05-22T16:27:02.118Z,51.90
2019-05-22T16:29:33.044Z,51.30
2019-05-22T16:32:04.375Z,50.00
2019-05-22T16:34:34.296Z,50.40
2019-05-22T16:37:04.692Z,49.00
2019-05-22T16:39:36.154Z,51.40
2019-05-22T16:42:06.835Z,51.00
2019-05-22T16:44:37.082Z,51.60
2019-05-22T16:47:07.196Z,51.30
2019-05-22T16:49:38.971Z,51.20
2019-05-22T16:52:11.374Z,52.70
2019-05-22T16:54:42.922Z,50.80
2019-05-22T16:57:13.083Z,50.50
2019-05-22T16:59:42.850Z,50.80
2019-05-22T17:02:15.328Z,50.70
2019-05-22T17:04:45.042Z,50.20
2019-05-22T17:07:15.705Z,52.10
2019-05-22T17:09:46.267Z,48.70
2019-05-22T17:12:18.099Z,46.40
2019-05-22T17:14:49.376Z,45.50
2019-05-22T17:17:19.642Z,44.60
2019-05-22T17:19:49.898Z,43.00
2019-05-22T17:22:20.168Z,42.20
2019-05-22T17:24:49.859Z,41.40
2019-05-22T17:27:20.931Z,42.40
2019-05-22T17:29:52.016Z,42.10
2019-05-22T17:32:23.713Z,42.30
2019-05-22T17:34:53.783Z,44.90
2019-05-22T17:37:25.187Z,44.80
2019-05-22T17:39:54.886Z,45.40
2019-05-22T17:42:27.428Z,44.60
2019-05-22T17:44:57.757Z,44.60
2019-05-22T17:47:29.357Z,44.30
2019-05-22T17:50:01.814Z,45.20
2019-05-22T17:52:32.249Z,44.60
2019-05-22T17:55:01.913Z,44.00
2019-05-22T17:57:32.186Z,46.60
2019-05-22T18:00:07.097Z,47.00
2019-05-22T18:02:37.743Z,49.50
2019-05-22T18:05:08.295Z,50.30
2019-05-22T18:07:38.669Z,50.60
2019-05-22T18:10:09.239Z,51.50
2019-05-22T18:12:39.011Z,52.50
2019-05-22T18:15:09.950Z,52.30
2019-05-22T18:17:39.907Z,52.20
2019-05-22T18:20:11.382Z,54.30
2019-05-22T18:22:41.246Z,55.10
2019-05-22T18:25:11.960Z,52.30
2019-05-22T18:27:41.490Z,54.00
2019-05-22T18:30:20.515Z,55.80
2019-05-22T18:32:50.152Z,57.00
2019-05-22T18:35:19.810Z,56.90
2019-05-22T18:37:49.403Z,58.10
2019-05-22T18:40:20.505Z,57.60
2019-05-22T18:42:50.127Z,56.50
2019-05-22T18:45:21.061Z,59.70
2019-05-22T18:47:50.602Z,62.30
2019-05-22T18:50:20.213Z,59.80
2019-05-22T18:52:51.431Z,61.20
2019-05-22T18:55:21.090Z,59.30
2019-05-22T18:57:50.899Z,59.50
2019-05-22T19:00:22.431Z,60.40
2019-05-22T19:02:51.984Z,61.90
2019-05-22T19:05:25.365Z,64.60
2019-05-22T19:07:55.155Z,65.00
2019-05-22T19:10:24.820Z,66.10
2019-05-22T19:12:54.313Z,66.10
2019-05-22T19:15:24.355Z,68.10
2019-05-22T19:17:53.897Z,67.50
2019-05-22T19:20:24.260Z,67.70
2019-05-22T19:22:59.923Z,68.70
2019-05-22T19:25:25.585Z,72.00
2019-05-22T19:27:55.170Z,72.10
2019-05-22T19:30:25.437Z,71.90
2019-05-22T19:32:55.095Z,71.50
2019-05-22T19:35:25.033Z,72.10
2019-05-22T19:37:54.674Z,72.10
2019-05-22T19:40:24.701Z,72.00
2019-05-22T19:42:54.623Z,72.20
2019-05-22T19:45:24.105Z,72.60
2019-05-22T19:47:56.909Z,72.50
2019-05-22T19:50:26.968Z,73.50
2019-05-22T19:52:57.682Z,73.80
2019-05-22T19:55:30.095Z,74.90
2019-05-22T19:57:59.916Z,74.20
2019-05-22T20:00:30.491Z,75.90
2019-05-22T20:03:00.102Z,75.90
2019-05-22T20:05:29.764Z,76.30
2019-05-22T20:07:59.297Z,75.90
2019-05-22T20:10:28.831Z,76.10
2019-05-22T20:12:59.477Z,76.50
2019-05-22T20:15:29.122Z,76.60
2019-05-22T20:17:58.610Z,77.10
2019-05-22T20:20:28.165Z,76.80
2019-05-22T20:22:58.139Z,77.50
2019-05-22T20:25:28.149Z,77.50
2019-05-22T20:28:00.424Z,77.60
2019-05-22T20:30:31.179Z,77.70
2019-05-22T20:33:01.046Z,78.60
2019-05-22T20:35:30.689Z,78.70
2019-05-22T20:38:00.683Z,79.20
2019-05-22T20:40:30.730Z,79.80
2019-05-22T20:43:00.655Z,80.40
2019-05-22T20:45:30.694Z,81.00
2019-05-22T20:48:14.461Z,81.30
2019-05-22T20:50:46.220Z,80.70
2019-05-22T20:53:17.211Z,81.20
2019-05-22T20:55:48.874Z,81.90
2019-05-22T20:58:20.942Z,81.10
2019-05-22T21:00:51.429Z,80.80
2019-05-22T21:03:22.015Z,79.90
2019-05-22T21:05:55.107Z,79.90
2019-05-22T21:08:25.621Z,80.80
2019-05-22T21:10:56.242Z,80.10
2019-05-22T21:13:26.121Z,81.30
2019-05-22T21:15:57.106Z,81.20
2019-05-22T21:18:44.837Z,80.20
2019-05-22T21:21:14.943Z,80.50
2019-05-22T21:23:44.683Z,80.90
2019-05-22T21:26:15.470Z,81.10
2019-05-22T21:28:44.988Z,81.40
2019-05-22T21:31:16.353Z,82.40
2019-05-22T21:33:46.652Z,82.90
2019-05-22T21:36:18.622Z,83.00
2019-05-22T21:38:48.410Z,83.10
2019-05-22T21:41:21.400Z,82.80
2019-05-22T21:43:52.398Z,82.90
2019-05-22T21:46:22.069Z,82.20
2019-05-22T21:48:53.604Z,82.70
2019-05-22T21:51:23.542Z,82.30
2019-05-22T21:53:54.319Z,83.30
2019-05-22T21:56:24.879Z,83.40
2019-05-22T21:58:54.527Z,83.90
2019-05-22T22:01:29.970Z,84.00
2019-05-22T22:04:19.389Z,84.20
2019-05-22T22:06:50.248Z,83.80
2019-05-22T22:09:22.429Z,84.10
2019-05-22T22:11:52.799Z,83.30
2019-05-22T22:14:24.072Z,83.20
2019-05-22T22:16:55.246Z,83.20
2019-05-22T22:19:25.374Z,83.70
2019-05-22T22:21:55.373Z,84.30
2019-05-22T22:24:24.922Z,84.70
2019-05-22T22:26:55.350Z,85.00
2019-05-22T22:29:24.911Z,85.30
2019-05-22T22:31:57.576Z,85.50
2019-05-22T22:34:48.669Z,85.30
2019-05-22T22:37:19.052Z,85.30
2019-05-22T22:39:54.571Z,84.60
2019-05-22T22:42:26.517Z,84.80
2019-05-22T22:44:57.415Z,84.90
2019-05-22T22:47:34.671Z,84.80
2019-05-22T22:50:04.395Z,85.60
2019-05-22T22:52:34.618Z,85.80
2019-05-22T22:55:06.601Z,85.70
2019-05-22T22:57:36.875Z,85.90
2019-05-22T23:00:08.836Z,85.50
2019-05-22T23:02:40.352Z,85.90
2019-05-22T23:05:11.924Z,86.50
2019-05-22T23:07:43.385Z,85.80
2019-05-22T23:10:19.376Z,86.30
2019-05-22T23:12:51.735Z,86.40
2019-05-22T23:15:23.975Z,86.10
2019-05-22T23:17:53.776Z,86.40
2019-05-22T23:20:21.839Z,86.50
2019-05-22T23:22:49.608Z,86.10
2019-05-22T23:25:20.179Z,86.50
2019-05-22T23:27:50.956Z,86.90
2019-05-22T23:30:22.808Z,87.30
2019-05-22T23:32:54.457Z,87.60
2019-05-22T23:35:28.713Z,87.30
2019-05-22T23:37:59.075Z,87.30
2019-05-22T23:40:31.363Z,86.90
2019-05-22T23:43:02.015Z,86.80
2019-05-22T23:45:32.131Z,86.70
2019-05-22T23:48:08.919Z,86.60
2019-05-22T23:50:39.062Z,86.80
2019-05-22T23:53:10.275Z,87.00
2019-05-22T23:55:40.713Z,87.00
2019-05-22T23:58:12.895Z,87.00
